首页
METAR-TAF:

METAR-TAF

机场 :

Fort Resolution, 西北特區, 加拿大

纬度: 61-11N, 经度: 113-41W, 海拔: 164米

当前天气观测

该预报发布于12小时和26分钟前的23:00 UTC
静风
温度 -11°C
湿度 72%
气压 1015 hPa
能見度: 19.3公里
多云层高于1500英尺
阴天层高于4000英尺
小雪

METAR: CYFR 262300Z 00000KT 12SM -SN BKN015 OVC040 M11/M15 A2998 RMK SC7SC1 /TR/63/ SNW CVR/MUCH LOOSE LAST STFD OBS/NEXT271500Z SLP171

时间: 04:26 (11:26 UTC)


TAF: 丢失

超过4000个机场的气象观测和天气预报(METAR&TAF报告)。

可查询的气象台以黄色和红色小点在地图上表示。

将鼠标移到小点上方,可查看气象台名称。

然后点击查看天气观测和预报。

如需切换地图:点击带黑十字的绿色按钮放大地图;点击带横线的绿色按钮缩小地图;或者点击绿色箭头查看邻近地区的地图。


METAR-TAF: